Time;durP1;ratioP1;P1;durP2;ratioP2;P2;SDS_P1;SDS_P2;PMS_P1;PMS_P2;Temp;Humidity;BMP_temperature;BMP_pressure;BME280_temperature;BME280_humidity;BME280_pressure;Samples;Min_cycle;Max_cycle;Signal;HPM_P1;HPM_P2
2022/11/07 00:02:24;;;;;;;1.80;1.30;;;11.90;99.90;;;;;;5035572;28;20175;-77
2022/11/07 00:04:50;;;;;;;2.80;1.00;;;11.70;99.90;;;;;;5035744;28;20279;-77
2022/11/07 00:07:15;;;;;;;1.63;1.50;;;11.70;99.90;;;;;;5035024;28;20645;-77
2022/11/07 00:09:41;;;;;;;2.60;1.53;;;11.70;99.90;;;;;;5035337;28;20203;-77
2022/11/07 00:12:07;;;;;;;1.53;1.43;;;11.70;99.90;;;;;;5035565;28;20207;-77
2022/11/07 00:14:33;;;;;;;1.80;1.40;;;11.80;99.90;;;;;;5035814;28;20721;-77
2022/11/07 00:16:58;;;;;;;1.30;1.20;;;11.80;99.90;;;;;;5035615;28;20243;-77
2022/11/07 00:19:24;;;;;;;1.20;0.97;;;11.80;99.90;;;;;;5035838;28;20179;-76
2022/11/07 00:21:49;;;;;;;1.50;1.10;;;11.80;99.90;;;;;;5035647;28;20171;-77
2022/11/07 00:24:16;;;;;;;1.20;0.90;;;11.70;99.90;;;;;;5033854;28;20281;-77
2022/11/07 00:26:43;;;;;;;2.30;1.37;;;11.80;99.90;;;;;;5036703;28;20171;-77
2022/11/07 00:29:17;;;;;;;1.33;1.03;;;11.80;99.90;;;;;;5038831;28;20419;-76
2022/11/07 00:31:43;;;;;;;1.03;0.90;;;11.80;99.90;;;;;;5036406;28;20451;-77
2022/11/07 00:34:09;;;;;;;1.33;1.20;;;11.80;99.90;;;;;;5035031;28;20417;-77
2022/11/07 00:36:34;;;;;;;1.20;1.00;;;11.90;99.90;;;;;;5036442;28;20175;-77
2022/11/07 00:39:00;;;;;;;1.93;1.40;;;12.00;99.90;;;;;;5035027;28;20181;-76
2022/11/07 00:41:26;;;;;;;2.30;1.20;;;11.90;99.90;;;;;;5035441;28;20235;-76
2022/11/07 00:43:52;;;;;;;1.00;0.90;;;11.90;99.90;;;;;;5037771;28;20198;-77
2022/11/07 00:46:18;;;;;;;1.40;1.30;;;11.90;99.90;;;;;;5038299;28;20655;-77
2022/11/07 00:48:44;;;;;;;1.17;0.90;;;12.00;99.90;;;;;;5035313;28;20410;-77
2022/11/07 00:51:16;;;;;;;2.70;1.07;;;12.00;99.90;;;;;;5035822;28;20451;-76
2022/11/07 00:53:42;;;;;;;1.33;1.20;;;12.10;99.90;;;;;;5033440;28;20517;-76
2022/11/07 00:56:11;;;;;;;1.83;1.10;;;12.10;99.90;;;;;;5034466;28;20502;-76
2022/11/07 00:58:37;;;;;;;1.97;1.00;;;12.10;99.90;;;;;;5035259;28;20464;-76
2022/11/07 01:01:18;;;;;;;1.93;1.43;;;12.20;99.90;;;;;;5035281;28;20410;-78
2022/11/07 01:06:30;;;;;;;1.20;1.10;;;12.30;99.90;;;;;;5037054;28;20425;-77
2022/11/07 01:08:56;;;;;;;1.17;0.90;;;12.40;99.90;;;;;;5037151;28;20412;-77
2022/11/07 01:11:24;;;;;;;1.73;1.33;;;12.30;99.90;;;;;;5037479;28;20406;-77
2022/11/07 01:14:00;;;;;;;2.00;1.03;;;12.20;99.90;;;;;;5038960;28;20399;-77
2022/11/07 01:16:27;;;;;;;1.63;0.90;;;12.10;99.90;;;;;;5057687;28;20417;-77
2022/11/07 01:18:54;;;;;;;1.27;1.00;;;12.00;99.90;;;;;;5058474;28;20411;-77
2022/11/07 01:21:20;;;;;;;1.17;1.07;;;11.80;99.90;;;;;;5057692;28;20472;-75
2022/11/07 01:23:45;;;;;;;1.97;1.50;;;11.90;99.90;;;;;;5058139;28;20399;-76
2022/11/07 01:26:12;;;;;;;2.10;1.47;;;11.80;99.90;;;;;;5056547;28;20485;-77
2022/11/07 01:28:38;;;;;;;1.40;1.20;;;11.80;99.90;;;;;;5058768;28;20184;-77
2022/11/07 01:31:09;;;;;;;1.63;1.33;;;11.90;99.90;;;;;;5058332;28;20417;-78
2022/11/07 01:33:36;;;;;;;1.43;1.17;;;11.90;99.90;;;;;;5057276;28;20498;-77
2022/11/07 01:36:04;;;;;;;2.40;1.60;;;11.90;99.90;;;;;;5056733;28;20458;-77
2022/11/07 01:38:30;;;;;;;1.97;1.10;;;11.80;99.90;;;;;;5032494;28;20430;-77
2022/11/07 01:43:51;;;;;;;1.90;1.23;;;11.80;99.90;;;;;;5033985;28;20586;-77
2022/11/07 01:46:17;;;;;;;1.60;1.00;;;11.80;99.90;;;;;;5033604;28;20856;-77
2022/11/07 01:48:53;;;;;;;1.80;1.20;;;11.70;99.90;;;;;;5033808;28;20410;-77
2022/11/07 01:51:21;;;;;;;1.47;1.37;;;11.80;99.90;;;;;;5033733;28;20892;-77
2022/11/07 01:53:48;;;;;;;1.47;1.37;;;11.80;99.90;;;;;;5031247;28;20419;-77
2022/11/07 01:56:17;;;;;;;1.67;1.53;;;11.80;99.90;;;;;;5032774;28;20460;-77
2022/11/07 01:58:44;;;;;;;1.50;1.10;;;11.80;99.90;;;;;;5031674;28;20414;-77
2022/11/07 02:01:09;;;;;;;2.77;1.57;;;11.90;99.90;;;;;;5033229;28;20496;-77
2022/11/07 02:03:35;;;;;;;2.20;1.33;;;11.90;99.90;;;;;;5033448;28;20431;-76
2022/11/07 02:06:07;;;;;;;3.20;1.60;;;11.90;99.90;;;;;;5032814;28;20564;-77
2022/11/07 02:08:35;;;;;;;1.70;1.30;;;11.90;99.90;;;;;;5031171;28;20441;-77
2022/11/07 02:11:03;;;;;;;1.60;1.20;;;11.90;99.90;;;;;;5032017;28;20834;-77
2022/11/07 02:13:30;;;;;;;1.80;1.20;;;11.90;99.90;;;;;;5035397;28;20481;-77
2022/11/07 02:16:00;;;;;;;1.80;1.40;;;12.00;99.90;;;;;;5041118;28;20480;-77
2022/11/07 02:18:27;;;;;;;1.10;1.00;;;12.00;99.90;;;;;;5032033;28;20434;-77
2022/11/07 02:20:56;;;;;;;1.60;1.50;;;12.10;99.90;;;;;;5036933;28;20439;-76
2022/11/07 02:23:43;;;;;;;1.60;1.20;;;12.20;99.90;;;;;;5031233;28;20415;-77
2022/11/07 02:26:08;;;;;;;2.43;1.20;;;12.10;99.90;;;;;;5033115;28;20755;-78
2022/11/07 02:28:36;;;;;;;3.03;1.37;;;12.00;99.90;;;;;;5033289;28;20437;-77
2022/11/07 02:31:02;;;;;;;1.97;1.43;;;12.00;99.90;;;;;;5033404;28;20178;-77
2022/11/07 02:33:27;;;;;;;1.77;1.60;;;12.00;99.90;;;;;;5031400;28;20455;-77
2022/11/07 02:35:53;;;;;;;1.60;1.50;;;12.00;99.90;;;;;;5032431;28;20735;-77
2022/11/07 02:38:23;;;;;;;1.40;1.30;;;12.10;99.90;;;;;;5031060;28;20176;-77
2022/11/07 02:40:57;;;;;;;1.60;1.50;;;12.20;99.90;;;;;;5032064;28;20413;-77
2022/11/07 02:43:25;;;;;;;1.40;1.30;;;12.30;99.90;;;;;;5033169;28;20393;-77
2022/11/07 02:45:52;;;;;;;2.77;1.60;;;12.30;99.90;;;;;;5032482;28;20439;-77
2022/11/07 02:48:18;;;;;;;1.47;1.37;;;12.40;99.90;;;;;;5033212;28;20932;-77
2022/11/07 02:50:44;;;;;;;2.13;1.33;;;12.40;99.90;;;;;;5032426;28;20493;-77
2022/11/07 02:53:10;;;;;;;2.07;1.33;;;12.50;99.90;;;;;;5032023;28;20227;-77
2022/11/07 02:55:36;;;;;;;3.37;1.90;;;12.50;99.90;;;;;;5032131;28;20531;-76
2022/11/07 02:58:03;;;;;;;1.60;1.20;;;12.40;99.90;;;;;;5032866;28;20633;-77
2022/11/07 03:00:28;;;;;;;4.40;1.50;;;12.40;99.90;;;;;;5033286;28;20457;-77
2022/11/07 03:02:54;;;;;;;1.50;1.40;;;12.40;99.90;;;;;;5031187;28;20941;-77
2022/11/07 03:05:20;;;;;;;2.27;1.80;;;12.40;99.90;;;;;;5032671;28;20289;-77
2022/11/07 03:07:47;;;;;;;2.90;1.40;;;12.40;99.90;;;;;;5034632;28;20179;-77
2022/11/07 03:10:14;;;;;;;2.07;1.63;;;12.40;99.90;;;;;;5036536;28;20417;-77
2022/11/07 03:12:40;;;;;;;2.07;1.70;;;12.40;99.90;;;;;;5036077;28;20437;-77
2022/11/07 03:15:08;;;;;;;1.53;1.17;;;12.50;99.90;;;;;;5053720;23;20572;-72
2022/11/07 03:17:34;;;;;;;2.37;1.47;;;12.50;99.90;;;;;;5015287;28;20633;-71
2022/11/07 03:20:00;;;;;;;2.67;1.57;;;12.60;99.90;;;;;;5016277;28;20493;-70
2022/11/07 03:22:26;;;;;;;1.43;1.30;;;12.70;99.90;;;;;;5016182;28;20199;-71
2022/11/07 03:24:51;;;;;;;4.30;1.33;;;12.60;99.90;;;;;;5015891;28;20470;-71
2022/11/07 03:27:17;;;;;;;2.97;1.30;;;12.50;99.90;;;;;;5016262;28;20179;-71
2022/11/07 03:29:43;;;;;;;1.60;1.30;;;12.50;99.90;;;;;;5016247;28;20279;-71
2022/11/07 03:32:09;;;;;;;2.20;1.37;;;12.50;99.90;;;;;;5016732;28;20474;-71
2022/11/07 03:34:34;;;;;;;1.60;1.30;;;12.60;99.90;;;;;;5016822;28;20681;-69
2022/11/07 03:37:00;;;;;;;2.57;1.50;;;12.80;99.90;;;;;;5016284;28;20201;-70
2022/11/07 03:39:25;;;;;;;3.57;1.67;;;12.60;99.90;;;;;;5014731;28;20189;-70
2022/11/07 03:41:51;;;;;;;2.33;1.30;;;12.70;99.90;;;;;;5016527;28;20188;-71
2022/11/07 03:44:17;;;;;;;1.53;1.40;;;12.70;99.90;;;;;;5016135;28;20181;-70
2022/11/07 03:46:42;;;;;;;1.50;1.10;;;12.70;99.90;;;;;;5015745;28;20193;-70
2022/11/07 03:49:08;;;;;;;2.80;1.23;;;12.80;99.90;;;;;;5015715;28;20178;-70
2022/11/07 03:51:33;;;;;;;2.37;1.40;;;12.90;99.90;;;;;;5015638;28;20217;-71
2022/11/07 03:53:59;;;;;;;1.97;1.40;;;13.00;99.90;;;;;;5015130;28;20175;-71
2022/11/07 03:56:24;;;;;;;1.40;1.10;;;12.90;99.90;;;;;;5015907;28;20193;-71
2022/11/07 03:58:50;;;;;;;2.53;1.30;;;12.70;99.90;;;;;;5015583;28;20170;-71
2022/11/07 04:01:16;;;;;;;1.97;1.03;;;12.50;99.90;;;;;;5015583;28;20739;-70
2022/11/07 04:03:42;;;;;;;3.00;1.27;;;12.60;99.90;;;;;;5015482;28;20162;-70
2022/11/07 04:06:07;;;;;;;1.40;1.20;;;12.70;99.90;;;;;;5015213;28;20439;-71
2022/11/07 04:08:33;;;;;;;2.70;1.33;;;12.60;99.90;;;;;;5014878;28;20641;-70
2022/11/07 04:10:58;;;;;;;1.47;1.17;;;12.60;99.90;;;;;;5015369;28;20172;-71
2022/11/07 04:18:57;;;;;;;2.13;1.20;;;12.40;99.90;;;;;;5015495;28;20376;-71
2022/11/07 04:21:23;;;;;;;2.93;1.50;;;12.40;99.90;;;;;;5015345;28;20466;-71
2022/11/07 04:23:48;;;;;;;2.17;1.87;;;12.40;99.90;;;;;;5014561;28;20498;-71
2022/11/07 04:28:58;;;;;;;1.70;1.23;;;12.40;99.90;;;;;;5016031;28;20243;-70
2022/11/07 04:31:24;;;;;;;2.47;1.13;;;12.30;99.90;;;;;;5013593;28;20508;-71
2022/11/07 04:33:50;;;;;;;2.63;1.37;;;12.30;99.90;;;;;;5014953;28;20199;-72
2022/11/07 04:36:15;;;;;;;2.30;1.40;;;12.40;99.90;;;;;;5014771;28;20198;-70
2022/11/07 04:38:41;;;;;;;2.03;1.43;;;12.40;99.90;;;;;;5013582;28;20178;-70
2022/11/07 04:41:17;;;;;;;7.77;1.40;;;12.50;99.90;;;;;;5015425;28;20169;-71
2022/11/07 04:43:43;;;;;;;1.43;1.10;;;12.50;99.90;;;;;;5015195;28;20163;-70
2022/11/07 04:46:08;;;;;;;2.50;1.33;;;12.50;99.90;;;;;;5014608;28;20460;-70
2022/11/07 04:48:34;;;;;;;6.20;2.27;;;12.50;99.90;;;;;;5014581;28;20177;-70
2022/11/07 04:50:59;;;;;;;2.23;1.40;;;12.40;99.90;;;;;;5014927;28;20534;-70
2022/11/07 04:53:25;;;;;;;1.50;1.40;;;12.20;99.90;;;;;;5014072;28;20556;-70
2022/11/07 04:55:50;;;;;;;2.80;1.40;;;12.40;99.90;;;;;;5017134;28;20194;-70
2022/11/07 04:58:16;;;;;;;2.10;1.23;;;12.40;99.90;;;;;;5014595;28;20193;-71
2022/11/07 05:00:42;;;;;;;2.80;1.40;;;12.20;99.90;;;;;;5013175;28;20701;-70
2022/11/07 05:03:07;;;;;;;2.17;1.40;;;12.30;99.90;;;;;;5014600;28;20256;-70
2022/11/07 05:05:33;;;;;;;3.03;1.50;;;12.30;99.90;;;;;;5014307;28;20650;-70
2022/11/07 05:07:58;;;;;;;1.30;1.00;;;12.30;99.90;;;;;;5013836;28;20233;-71
2022/11/07 05:10:26;;;;;;;2.77;1.33;;;12.30;99.90;;;;;;5013285;28;20187;-70
2022/11/07 05:12:53;;;;;;;2.13;1.93;;;12.20;99.90;;;;;;5012790;28;20248;-70
2022/11/07 05:15:18;;;;;;;1.20;1.07;;;12.00;99.90;;;;;;5014287;28;20540;-70
2022/11/07 05:17:44;;;;;;;2.40;1.53;;;12.00;99.90;;;;;;5014138;28;20432;-71
2022/11/07 05:20:30;;;;;;;2.93;1.50;;;11.80;99.90;;;;;;5014325;28;20191;-71
2022/11/07 05:23:11;;;;;;;2.97;2.20;;;11.80;99.90;;;;;;5013349;28;20188;-70
2022/11/07 05:25:38;;;;;;;1.73;1.63;;;11.80;99.90;;;;;;5014081;28;20502;-71
2022/11/07 05:28:04;;;;;;;2.87;1.70;;;11.80;99.90;;;;;;5012800;28;20860;-71
2022/11/07 05:30:30;;;;;;;2.63;1.77;;;11.80;99.90;;;;;;5013729;28;20480;-70
2022/11/07 05:32:55;;;;;;;3.23;1.60;;;11.70;99.90;;;;;;5014381;28;20945;-71
2022/11/07 05:35:21;;;;;;;2.83;1.33;;;11.60;99.90;;;;;;5015792;28;20562;-72
2022/11/07 05:37:47;;;;;;;2.70;1.10;;;11.60;99.90;;;;;;5017188;28;20179;-72
2022/11/07 05:40:13;;;;;;;2.30;1.40;;;11.60;99.90;;;;;;5012988;28;20169;-72
2022/11/07 05:42:39;;;;;;;1.40;1.30;;;11.60;99.90;;;;;;5014179;28;20415;-70
2022/11/07 05:45:05;;;;;;;1.60;1.17;;;11.60;99.90;;;;;;5013942;28;20811;-71
2022/11/07 05:47:31;;;;;;;2.73;1.50;;;11.70;99.90;;;;;;5013869;28;20418;-71
2022/11/07 05:49:56;;;;;;;1.50;1.40;;;11.80;99.90;;;;;;5013860;28;20437;-72
2022/11/07 05:52:22;;;;;;;3.27;1.30;;;11.80;99.90;;;;;;5014146;28;20223;-71
2022/11/07 05:54:47;;;;;;;2.50;1.47;;;11.60;99.90;;;;;;5013275;28;20204;-71
2022/11/07 05:57:13;;;;;;;4.10;1.80;;;11.70;99.90;;;;;;5014275;28;20195;-71
2022/11/07 05:59:38;;;;;;;1.60;1.50;;;11.80;99.90;;;;;;5014057;28;20635;-70
2022/11/07 06:02:04;;;;;;;1.50;1.40;;;11.90;99.90;;;;;;5013817;28;20557;-71
2022/11/07 06:04:30;;;;;;;1.80;1.67;;;11.90;99.90;;;;;;5014752;28;20169;-71
2022/11/07 06:06:55;;;;;;;2.90;1.60;;;11.90;99.90;;;;;;5013801;28;20171;-72
2022/11/07 06:09:21;;;;;;;2.43;1.90;;;11.80;99.90;;;;;;5013410;28;20661;-72
2022/11/07 06:11:46;;;;;;;3.33;1.70;;;11.70;99.90;;;;;;5013759;28;20550;-70
2022/11/07 06:14:12;;;;;;;3.20;1.73;;;11.70;99.90;;;;;;5013497;28;20170;-72
2022/11/07 06:16:37;;;;;;;3.10;2.00;;;11.90;99.90;;;;;;5013280;28;20205;-71
2022/11/07 06:19:03;;;;;;;2.33;1.90;;;12.00;99.90;;;;;;5013409;28;20643;-71
2022/11/07 06:21:29;;;;;;;2.67;1.87;;;12.00;99.90;;;;;;5013285;28;20545;-71
2022/11/07 06:23:55;;;;;;;3.67;2.40;;;12.10;99.90;;;;;;5012927;28;20246;-71
2022/11/07 06:26:20;;;;;;;4.20;2.33;;;11.90;99.90;;;;;;5013101;28;20843;-72
2022/11/07 06:28:46;;;;;;;1.73;1.60;;;11.80;99.90;;;;;;5013395;28;20166;-72
2022/11/07 06:31:13;;;;;;;2.27;1.80;;;11.90;99.90;;;;;;5013399;28;20634;-70
2022/11/07 06:33:38;;;;;;;2.90;1.83;;;12.00;99.90;;;;;;5013300;28;20565;-71
2022/11/07 06:36:09;;;;;;;3.47;2.20;;;12.00;99.90;;;;;;5014093;28;20415;-71
2022/11/07 06:38:37;;;;;;;2.50;2.23;;;12.00;99.90;;;;;;5012081;28;20296;-71
2022/11/07 06:41:05;;;;;;;4.10;3.13;;;12.00;99.90;;;;;;5014633;28;20399;-70
2022/11/07 06:43:31;;;;;;;9.27;2.70;;;12.00;99.90;;;;;;5017168;28;20419;-71
2022/11/07 06:46:00;;;;;;;5.37;3.73;;;12.10;99.90;;;;;;5015936;28;20438;-71
2022/11/07 06:48:25;;;;;;;5.17;3.20;;;12.30;99.90;;;;;;5017042;28;20444;-71
2022/11/07 06:50:58;;;;;;;7.47;4.13;;;12.40;99.90;;;;;;5016811;28;20459;-71
2022/11/07 06:53:25;;;;;;;4.70;3.67;;;12.40;99.90;;;;;;5016328;28;20188;-71
2022/11/07 06:55:50;;;;;;;5.63;3.87;;;12.40;99.90;;;;;;5016786;28;20469;-71
2022/11/07 06:58:16;;;;;;;4.90;3.33;;;12.40;99.90;;;;;;5016395;28;20399;-69
2022/11/07 07:00:41;;;;;;;4.23;2.77;;;12.40;99.90;;;;;;5016196;28;20178;-72
2022/11/07 07:03:07;;;;;;;3.30;2.83;;;12.40;99.90;;;;;;5006832;28;20446;-69
2022/11/07 07:05:34;;;;;;;4.47;3.07;;;12.40;99.90;;;;;;5007106;28;20203;-70
2022/11/07 07:07:59;;;;;;;9.90;3.20;;;12.40;99.90;;;;;;5005968;28;20178;-69
2022/11/07 07:10:25;;;;;;;6.37;4.33;;;12.40;99.90;;;;;;5007156;28;20830;-71
2022/11/07 07:12:55;;;;;;;6.37;5.77;;;12.40;99.90;;;;;;5006874;28;20873;-69
2022/11/07 07:15:21;;;;;;;8.10;6.83;;;12.50;99.90;;;;;;5006609;28;20210;-71
2022/11/07 07:17:46;;;;;;;8.10;5.43;;;12.60;99.90;;;;;;5006674;28;21129;-71
2022/11/07 07:20:12;;;;;;;6.70;5.43;;;12.60;99.90;;;;;;5006870;28;20185;-70
2022/11/07 07:22:37;;;;;;;7.47;6.37;;;12.60;99.90;;;;;;5005386;28;20688;-71
2022/11/07 07:25:03;;;;;;;5.13;4.57;;;12.50;99.90;;;;;;5006064;28;20670;-72
2022/11/07 07:27:29;;;;;;;6.83;4.73;;;12.60;99.90;;;;;;5006827;28;20189;-71
2022/11/07 07:29:54;;;;;;;7.17;5.00;;;12.60;99.90;;;;;;5006929;28;20210;-72
2022/11/07 07:32:23;;;;;;;5.57;4.23;;;12.60;99.90;;;;;;5006333;28;20237;-69
2022/11/07 07:34:50;;;;;;;5.70;4.43;;;12.60;99.90;;;;;;5006648;28;20192;-72
2022/11/07 07:37:16;;;;;;;5.20;3.50;;;12.70;99.90;;;;;;5006381;28;20414;-71
2022/11/07 07:39:41;;;;;;;5.63;3.50;;;12.70;99.90;;;;;;5005720;28;20792;-70
2022/11/07 07:42:07;;;;;;;4.40;2.83;;;12.80;99.90;;;;;;5006027;28;20652;-71
2022/11/07 07:44:33;;;;;;;5.53;3.53;;;12.80;99.90;;;;;;5006215;28;20191;-69
2022/11/07 07:46:59;;;;;;;6.57;2.67;;;12.80;99.90;;;;;;5005892;28;20467;-71
2022/11/07 07:49:24;;;;;;;4.83;3.07;;;12.90;99.90;;;;;;5006390;28;20524;-72
2022/11/07 07:51:50;;;;;;;5.70;3.37;;;13.00;99.90;;;;;;5005484;28;20212;-72
2022/11/07 07:54:16;;;;;;;4.03;2.30;;;12.90;99.90;;;;;;5005280;28;20188;-72
2022/11/07 07:56:41;;;;;;;3.37;2.80;;;13.10;99.90;;;;;;5006247;28;20198;-70
2022/11/07 07:59:07;;;;;;;4.97;1.97;;;13.20;99.90;;;;;;5005986;28;20189;-71
2022/11/07 08:01:32;;;;;;;3.43;1.90;;;13.20;99.90;;;;;;5004958;28;20182;-72
2022/11/07 08:03:58;;;;;;;4.53;1.97;;;13.30;99.90;;;;;;5005640;28;20179;-71
2022/11/07 08:06:24;;;;;;;3.23;1.90;;;13.40;99.90;;;;;;5005982;28;20547;-72
2022/11/07 08:08:49;;;;;;;7.90;2.03;;;13.50;99.90;;;;;;5005062;28;20915;-71
2022/11/07 08:11:15;;;;;;;4.77;1.70;;;13.40;99.90;;;;;;5006183;28;20259;-71
2022/11/07 08:13:40;;;;;;;7.07;2.50;;;13.70;99.90;;;;;;5005539;28;20464;-70
2022/11/07 08:16:06;;;;;;;5.73;2.80;;;13.70;99.90;;;;;;5005339;28;20307;-72
2022/11/07 08:18:35;;;;;;;4.80;2.27;;;13.80;99.90;;;;;;5012449;28;20172;-70
2022/11/07 08:21:01;;;;;;;8.50;2.30;;;13.90;99.90;;;;;;5013667;28;20460;-70
2022/11/07 08:23:26;;;;;;;2.80;1.90;;;14.00;99.90;;;;;;5014716;28;20410;-70
2022/11/07 08:25:57;;;;;;;5.07;2.20;;;14.10;99.90;;;;;;5015222;28;20267;-70
2022/11/07 08:28:28;;;;;;;3.30;2.17;;;14.10;99.90;;;;;;5015070;28;20568;-73
2022/11/07 08:31:12;;;;;;;3.43;1.97;;;13.90;99.90;;;;;;5013709;28;20408;-70
2022/11/07 08:33:38;;;;;;;4.43;1.83;;;13.90;99.90;;;;;;5013709;28;20450;-71
2022/11/07 08:36:05;;;;;;;4.17;2.10;;;13.80;99.90;;;;;;5014683;28;20425;-70
2022/11/07 08:38:32;;;;;;;3.67;1.80;;;13.90;99.90;;;;;;5013366;28;20838;-71
2022/11/07 08:40:58;;;;;;;4.53;2.07;;;14.00;99.90;;;;;;5013877;28;20767;-70
2022/11/07 08:43:24;;;;;;;4.00;1.93;;;13.90;99.90;;;;;;5014378;28;20412;-70
2022/11/07 08:45:52;;;;;;;4.30;2.40;;;14.10;99.90;;;;;;5014577;28;20857;-71
2022/11/07 08:48:18;;;;;;;4.57;2.17;;;14.20;99.90;;;;;;5014387;28;20486;-71
2022/11/07 08:50:43;;;;;;;4.10;1.90;;;14.20;99.90;;;;;;5014647;28;20830;-71
2022/11/07 08:53:09;;;;;;;7.27;2.00;;;14.30;99.90;;;;;;5013943;28;20223;-71
2022/11/07 08:55:35;;;;;;;3.70;2.10;;;14.50;99.90;;;;;;5016460;28;20194;-71
2022/11/07 08:58:06;;;;;;;4.07;1.73;;;14.60;99.90;;;;;;5014265;28;20821;-71
2022/11/07 09:00:32;;;;;;;3.00;1.90;;;14.70;99.90;;;;;;5014516;28;20171;-71
2022/11/07 09:03:10;;;;;;;4.43;2.30;;;14.70;99.90;;;;;;5014303;28;20416;-71
2022/11/07 09:05:37;;;;;;;5.90;2.17;;;14.60;99.90;;;;;;5014139;28;20439;-70
2022/11/07 09:08:03;;;;;;;6.33;2.27;;;14.70;99.90;;;;;;5014020;28;20962;-70
2022/11/07 09:10:28;;;;;;;4.17;2.20;;;14.60;99.90;;;;;;5013901;28;20405;-71
2022/11/07 09:12:54;;;;;;;5.23;1.63;;;14.60;99.90;;;;;;5014229;28;20197;-70
2022/11/07 09:15:20;;;;;;;4.30;2.17;;;14.70;99.90;;;;;;5041262;23;20737;-75
2022/11/07 09:17:46;;;;;;;3.63;1.53;;;14.70;99.90;;;;;;5033897;28;20580;-76
2022/11/07 09:20:15;;;;;;;3.80;2.10;;;14.80;99.90;;;;;;5034364;28;20172;-77
2022/11/07 09:22:40;;;;;;;3.97;1.80;;;14.90;99.90;;;;;;5034142;28;20397;-76
2022/11/07 09:25:07;;;;;;;4.83;2.10;;;15.00;99.90;;;;;;5036824;28;20451;-77
2022/11/07 09:27:32;;;;;;;6.73;2.10;;;15.00;99.90;;;;;;5034894;28;20194;-76
2022/11/07 09:29:58;;;;;;;3.00;1.80;;;15.10;99.90;;;;;;5034992;28;20399;-76
2022/11/07 09:32:24;;;;;;;6.37;1.73;;;15.30;99.90;;;;;;5035268;28;20197;-76
2022/11/07 09:34:49;;;;;;;4.33;2.10;;;15.40;99.90;;;;;;5033871;28;20171;-76
2022/11/07 09:37:15;;;;;;;6.30;2.07;;;15.30;99.90;;;;;;5033682;28;20171;-77
2022/11/07 09:39:40;;;;;;;6.20;2.20;;;15.50;99.90;;;;;;5032362;28;20582;-77
2022/11/07 09:42:28;;;;;;;6.10;2.33;;;15.30;99.90;;;;;;5033686;28;20171;-76
2022/11/07 09:44:58;;;;;;;5.43;1.60;;;15.30;99.90;;;;;;5033739;28;20158;-76
2022/11/07 09:47:40;;;;;;;3.40;1.93;;;15.40;99.90;;;;;;5032779;28;20488;-77
2022/11/07 09:50:17;;;;;;;3.93;2.00;;;15.30;99.90;;;;;;5033877;28;20470;-76
2022/11/07 09:53:14;;;;;;;3.17;1.50;;;15.40;99.90;;;;;;5033622;28;20946;-76
2022/11/07 09:55:51;;;;;;;4.40;1.93;;;15.30;99.90;;;;;;5028197;28;20443;-76
2022/11/07 09:58:31;;;;;;;5.40;2.17;;;15.20;99.90;;;;;;5034235;28;20418;-76
2022/11/07 10:01:00;;;;;;;4.03;2.00;;;15.30;99.90;;;;;;5034195;28;20377;-76
2022/11/07 10:03:26;;;;;;;5.00;2.00;;;15.40;99.90;;;;;;5034255;28;20459;-76
2022/11/07 10:06:22;;;;;;;5.10;2.07;;;15.50;99.90;;;;;;5034322;28;20788;-76
2022/11/07 10:09:08;;;;;;;5.93;2.03;;;15.70;99.90;;;;;;5033963;28;20177;-78
2022/11/07 10:11:46;;;;;;;5.10;2.00;;;15.60;99.90;;;;;;5035268;28;20382;-77
2022/11/07 10:14:19;;;;;;;4.37;1.50;;;15.70;99.90;;;;;;5034196;28;20390;-77
2022/11/07 10:17:12;;;;;;;5.10;1.67;;;15.80;99.90;;;;;;5033862;28;20480;-77
2022/11/07 10:19:56;;;;;;;5.27;1.97;;;15.90;99.90;;;;;;5034109;28;20406;-77
2022/11/07 10:22:52;;;;;;;6.70;1.90;;;15.60;99.90;;;;;;5032863;28;20931;-77
2022/11/07 10:25:44;;;;;;;7.63;2.07;;;15.50;99.90;;;;;;5033102;28;20422;-77
2022/11/07 10:28:15;;;;;;;3.83;1.30;;;15.60;99.90;;;;;;5033746;28;20934;-76
2022/11/07 10:30:47;;;;;;;3.90;1.73;;;15.70;99.90;;;;;;5034260;28;20409;-76
2022/11/07 10:33:15;;;;;;;3.97;2.27;;;15.80;99.90;;;;;;5033217;28;20452;-76
2022/11/07 10:35:46;;;;;;;3.60;1.83;;;16.00;99.90;;;;;;5033129;28;20445;-77
2022/11/07 10:38:21;;;;;;;4.97;2.33;;;15.90;99.90;;;;;;5031880;28;20417;-76
2022/11/07 10:40:49;;;;;;;4.37;2.10;;;15.80;99.90;;;;;;5033924;28;20872;-77
2022/11/07 10:43:39;;;;;;;3.10;1.53;;;15.80;99.90;;;;;;5031525;28;20435;-77
2022/11/07 10:46:38;;;;;;;5.20;2.00;;;16.10;99.90;;;;;;5033165;28;20433;-77
2022/11/07 10:49:14;;;;;;;6.87;1.77;;;16.30;99.90;;;;;;5035463;28;20892;-77
2022/11/07 10:51:41;;;;;;;5.30;2.00;;;16.40;99.90;;;;;;5033275;28;20895;-77
2022/11/07 10:54:20;;;;;;;3.57;1.90;;;16.30;99.90;;;;;;5031705;28;20493;-77
2022/11/07 10:57:04;;;;;;;3.57;2.13;;;16.30;99.90;;;;;;5031164;28;20434;-77
2022/11/07 10:59:32;;;;;;;5.00;2.23;;;16.40;99.90;;;;;;5033165;28;20410;-77
2022/11/07 11:01:59;;;;;;;2.30;1.53;;;16.40;99.90;;;;;;5015169;28;20413;-77
2022/11/07 11:04:30;;;;;;;5.90;2.37;;;16.40;99.90;;;;;;5033098;28;20421;-77
2022/11/07 11:07:04;;;;;;;3.23;1.90;;;17.00;99.90;;;;;;5033583;28;20430;-77
2022/11/07 11:09:34;;;;;;;4.30;2.20;;;16.90;99.90;;;;;;5033293;28;20428;-77
2022/11/07 11:12:12;;;;;;;3.40;2.00;;;16.90;99.90;;;;;;5034687;28;20481;-77
2022/11/07 11:14:38;;;;;;;3.80;1.73;;;16.90;99.90;;;;;;5033329;28;20444;-77
2022/11/07 11:17:04;;;;;;;3.70;1.73;;;17.00;99.90;;;;;;5031910;28;20453;-77
2022/11/07 11:19:47;;;;;;;2.83;1.67;;;17.00;99.90;;;;;;5034347;28;20425;-77
2022/11/07 11:22:17;;;;;;;3.83;1.57;;;17.10;99.90;;;;;;5035842;28;20398;-77
2022/11/07 11:24:43;;;;;;;3.20;1.67;;;17.40;99.90;;;;;;5035336;28;20414;-77
2022/11/07 11:27:22;;;;;;;3.13;1.90;;;17.80;99.90;;;;;;5035787;28;20449;-77
2022/11/07 11:30:00;;;;;;;4.10;1.63;;;18.60;99.90;;;;;;5039025;28;20155;-77
2022/11/07 11:32:36;;;;;;;2.80;1.57;;;19.20;99.90;;;;;;5039522;28;20469;-77
2022/11/07 11:35:07;;;;;;;4.40;1.30;;;19.80;99.90;;;;;;5040299;28;20473;-77
2022/11/07 11:37:40;;;;;;;5.60;2.00;;;21.10;99.90;;;;;;5036859;28;20895;-76
2022/11/07 11:40:35;;;;;;;3.63;1.30;;;21.10;99.90;;;;;;5037389;28;20430;-77
2022/11/07 11:43:10;;;;;;;5.13;1.67;;;20.90;99.90;;;;;;5040244;28;20383;-76
2022/11/07 11:45:38;;;;;;;4.57;1.87;;;21.20;99.90;;;;;;5038025;28;20479;-77
2022/11/07 11:48:24;;;;;;;4.20;1.63;;;20.30;99.90;;;;;;5036373;28;20410;-78
2022/11/07 11:51:04;;;;;;;3.10;1.30;;;19.80;99.90;;;;;;5035641;28;20838;-77
2022/11/07 11:53:29;;;;;;;2.87;1.40;;;19.20;99.90;;;;;;5034913;28;20584;-76
2022/11/07 11:56:07;;;;;;;2.73;1.20;;;18.50;99.90;;;;;;5035901;28;20897;-77
2022/11/07 11:58:58;;;;;;;4.13;1.47;;;18.80;99.90;;;;;;5036039;28;20187;-76
2022/11/07 12:02:01;;;;;;;9.03;1.33;;;18.20;99.90;;;;;;5035825;28;20406;-77
2022/11/07 12:04:35;;;;;;;5.40;1.50;;;18.00;99.90;;;;;;5036664;28;20390;-77
2022/11/07 12:07:12;;;;;;;2.43;0.90;;;17.60;99.90;;;;;;5035131;28;20520;-78
2022/11/07 12:09:45;;;;;;;2.27;1.17;;;17.90;99.90;;;;;;5034692;28;20409;-77
2022/11/07 12:12:19;;;;;;;2.73;1.30;;;17.90;99.90;;;;;;5035838;28;20928;-77
2022/11/07 12:15:20;;;;;;;4.07;1.77;;;18.00;99.90;;;;;;5036233;28;20469;-76
2022/11/07 12:18:06;;;;;;;4.40;1.40;;;17.80;99.90;;;;;;5036079;28;20390;-76
2022/11/07 12:20:50;;;;;;;4.03;1.40;;;17.80;99.90;;;;;;5035728;28;20473;-76
2022/11/07 12:23:25;;;;;;;3.53;1.43;;;18.10;99.90;;;;;;5035253;28;20806;-76
2022/11/07 12:26:22;;;;;;;1.90;1.10;;;18.20;99.90;;;;;;5035670;28;20480;-76
2022/11/07 12:28:58;;;;;;;4.67;1.90;;;18.30;99.90;;;;;;5029794;28;20410;-76
2022/11/07 12:31:58;;;;;;;2.03;1.30;;;18.00;99.90;;;;;;5035956;28;20413;-76
2022/11/07 12:34:52;;;;;;;2.60;1.50;;;17.90;99.90;;;;;;5033737;28;20959;-76
2022/11/07 12:37:23;;;;;;;3.07;1.30;;;17.80;99.90;;;;;;5033613;28;20398;-76
2022/11/07 12:40:13;;;;;;;4.10;1.40;;;17.90;99.90;;;;;;5033023;28;20429;-76
2022/11/07 12:42:56;;;;;;;3.40;1.90;;;17.90;99.90;;;;;;5035017;28;20914;-76
2022/11/07 12:45:32;;;;;;;6.60;2.80;;;17.70;99.90;;;;;;5034781;28;20441;-76
2022/11/07 12:48:04;;;;;;;7.47;2.50;;;17.60;99.90;;;;;;5035401;28;20386;-76
2022/11/07 12:50:37;;;;;;;3.30;2.00;;;17.40;99.90;;;;;;5036884;28;20919;-76
2022/11/07 12:53:14;;;;;;;4.87;2.40;;;17.40;99.90;;;;;;5034072;28;20485;-76
2022/11/07 12:55:56;;;;;;;3.73;2.53;;;17.90;99.90;;;;;;5012879;28;20787;-76
2022/11/07 12:58:27;;;;;;;3.00;1.50;;;18.10;99.90;;;;;;5015083;28;20467;-76
2022/11/07 13:00:54;;;;;;;4.40;2.00;;;17.90;99.90;;;;;;5015009;28;20388;-77
2022/11/07 13:03:31;;;;;;;1.70;1.13;;;17.90;99.90;;;;;;5027140;28;20950;-77
2022/11/07 13:06:18;;;;;;;3.93;1.40;;;17.80;99.90;;;;;;5034338;28;20422;-77
2022/11/07 13:08:59;;;;;;;2.47;1.50;;;17.70;99.90;;;;;;5034394;28;20780;-77
2022/11/07 13:11:36;;;;;;;3.87;2.03;;;17.80;99.90;;;;;;5034768;28;20790;-77
2022/11/07 13:14:25;;;;;;;6.73;2.27;;;17.70;99.90;;;;;;5036149;28;20449;-76
2022/11/07 13:16:57;;;;;;;2.60;1.80;;;17.40;99.90;;;;;;5035568;28;20445;-76